createdAt,value
2022-09-28T00:01:36.442Z,99397.88
2022-09-28T00:06:57.136Z,99407.25
2022-09-28T00:12:18.418Z,99390.25
2022-09-28T00:17:38.929Z,99388.56
2022-09-28T00:22:59.382Z,99400.53
2022-09-28T00:28:20.113Z,99386.13
2022-09-28T00:33:40.747Z,99398.16
2022-09-28T00:39:08.716Z,99386.44
2022-09-28T00:44:38.190Z,99383.94
2022-09-28T00:50:05.703Z,99381.38
2022-09-28T00:55:40.543Z,99369.41
2022-09-28T01:01:01.125Z,99375.94
2022-09-28T01:06:24.493Z,99368.09
2022-09-28T01:11:45.182Z,99369.22
2022-09-28T01:17:25.750Z,99355.75
2022-09-28T01:23:15.063Z,99357.53
2022-09-28T01:28:36.204Z,99360.94
2022-09-28T01:34:02.292Z,99359.19
2022-09-28T01:39:32.858Z,99354.06
2022-09-28T01:45:00.223Z,99354.88
2022-09-28T01:50:25.402Z,99358.09
2022-09-28T01:55:51.399Z,99357.16
2022-09-28T02:01:28.790Z,99358.19
2022-09-28T02:06:54.727Z,99352.41
2022-09-28T02:12:31.662Z,99354.25
2022-09-28T02:17:53.236Z,99358.63
2022-09-28T02:23:15.321Z,99352.03
2022-09-28T02:28:36.412Z,99349.63
2022-09-28T02:33:58.034Z,99346.19
2022-09-28T02:39:19.388Z,99340.66
2022-09-28T02:45:05.761Z,99342.66
2022-09-28T02:50:57.614Z,99349.63
2022-09-28T02:56:56.068Z,99358.88
2022-09-28T03:02:23.910Z,99350.03
2022-09-28T03:07:44.683Z,99350.69
2022-09-28T03:13:06.327Z,99351.31
2022-09-28T03:18:27.953Z,99354.25
2022-09-28T03:23:48.641Z,99361.75
2022-09-28T03:29:10.396Z,99352.84
2022-09-28T03:34:32.049Z,99353.44
2022-09-28T03:39:53.726Z,99353.88
2022-09-28T03:45:14.583Z,99352.63
2022-09-28T03:50:35.253Z,99350.59
2022-09-28T03:55:56.391Z,99347.53
2022-09-28T04:01:18.611Z,99346.53
2022-09-28T04:06:41.094Z,99346.34
2022-09-28T04:12:04.364Z,99349.38
2022-09-28T04:17:26.840Z,99347.41
2022-09-28T04:22:48.355Z,99348.22
2022-09-28T04:28:28.000Z,99339.84
2022-09-28T04:33:48.577Z,99342.72
2022-09-28T04:39:09.254Z,99346.47
2022-09-28T04:44:30.014Z,99348.50
2022-09-28T04:49:54.273Z,99346.25
2022-09-28T04:55:21.544Z,99344.69
2022-09-28T05:00:42.549Z,99344.94
2022-09-28T05:06:15.589Z,99346.78
2022-09-28T05:11:41.260Z,99348.63
2022-09-28T05:17:09.812Z,99353.16
2022-09-28T05:22:49.531Z,99355.81
2022-09-28T05:28:11.820Z,99354.94
2022-09-28T05:33:55.847Z,99360.06
2022-09-28T05:39:17.313Z,99361.56
2022-09-28T05:44:38.888Z,99351.91
2022-09-28T05:49:59.582Z,99358.97
2022-09-28T05:55:20.445Z,99363.41
2022-09-28T06:00:41.158Z,99371.59
2022-09-28T06:06:02.612Z,99363.47
2022-09-28T06:11:26.313Z,99372.84
2022-09-28T06:16:47.751Z,99363.56
2022-09-28T06:22:08.968Z,99369.16
2022-09-28T06:27:42.522Z,99366.97
2022-09-28T06:33:05.854Z,99361.38
2022-09-28T06:38:26.939Z,99373.72
2022-09-28T06:43:48.627Z,99367.38
2022-09-28T06:49:29.147Z,99367.59
2022-09-28T06:55:09.937Z,99381.25
2022-09-28T07:00:39.228Z,99380.91
2022-09-28T07:05:59.991Z,99385.13
2022-09-28T07:11:39.636Z,99384.84
2022-09-28T07:17:18.894Z,99382.44
2022-09-28T07:22:43.375Z,99390.47
2022-09-28T07:28:09.418Z,99403.63
2022-09-28T07:33:39.218Z,99405.13
2022-09-28T07:39:15.047Z,99404.25
2022-09-28T07:44:38.859Z,99405.41
2022-09-28T07:49:59.495Z,99419.91
2022-09-28T07:56:02.078Z,99414.88
2022-09-28T08:01:30.854Z,99428.06
2022-09-28T08:06:53.310Z,99425.41
2022-09-28T08:12:14.445Z,99425.94
2022-09-28T08:17:52.433Z,99431.19
2022-09-28T08:23:14.626Z,99430.44
2022-09-28T08:28:35.682Z,99434.09
2022-09-28T08:34:13.644Z,99443.00
2022-09-28T08:39:51.635Z,99453.16
2022-09-28T08:45:33.701Z,99456.19
2022-09-28T08:51:10.917Z,99452.16
2022-09-28T08:56:44.602Z,99465.13
2022-09-28T09:02:27.147Z,99463.59
2022-09-28T09:08:08.481Z,99471.78
2022-09-28T09:13:53.026Z,99464.22
2022-09-28T09:19:35.548Z,99469.31
2022-09-28T09:25:19.207Z,99470.13
2022-09-28T09:30:55.589Z,99480.59
2022-09-28T09:36:47.861Z,99469.63
2022-09-28T09:42:56.369Z,99462.13
2022-09-28T09:48:45.667Z,99470.91
2022-09-28T09:54:16.625Z,99480.75
2022-09-28T09:59:41.516Z,99477.63
2022-09-28T10:05:13.496Z,99480.59
2022-09-28T10:10:56.456Z,99482.97
2022-09-28T10:16:20.964Z,99499.06
2022-09-28T10:21:51.771Z,99496.25
2022-09-28T10:27:23.884Z,99501.41
2022-09-28T10:32:49.479Z,99504.31
2022-09-28T10:38:17.144Z,99508.00
2022-09-28T10:44:08.757Z,99516.44
2022-09-28T10:49:46.774Z,99512.34
2022-09-28T10:55:20.850Z,99528.28
2022-09-28T11:00:43.015Z,99520.28
2022-09-28T11:06:11.843Z,99526.63
2022-09-28T11:11:41.592Z,99512.59
2022-09-28T11:17:27.251Z,99522.28
2022-09-28T11:22:51.387Z,99531.13
2022-09-28T11:28:27.774Z,99519.69
2022-09-28T11:33:48.296Z,99540.22
2022-09-28T11:39:58.993Z,99540.63
2022-09-28T11:45:39.534Z,99525.66
2022-09-28T11:51:06.216Z,99531.50
2022-09-28T11:56:41.903Z,99536.38
2022-09-28T12:02:16.692Z,99534.22
2022-09-28T12:07:50.064Z,99523.50
2022-09-28T12:13:35.386Z,99528.31
2022-09-28T12:24:33.335Z,99534.41
2022-09-28T12:30:00.680Z,99533.00
2022-09-28T12:35:49.126Z,99520.19
2022-09-28T12:41:19.759Z,99533.38
2022-09-28T12:47:13.860Z,99530.75
2022-09-28T12:52:43.266Z,99530.66
2022-09-28T12:58:15.875Z,99545.97
2022-09-28T13:03:45.816Z,99546.53
2022-09-28T13:09:22.564Z,99533.66
2022-09-28T13:15:04.732Z,99541.78
2022-09-28T13:20:36.869Z,99544.91
2022-09-28T13:26:14.380Z,99546.31
2022-09-28T13:31:40.310Z,99541.47
2022-09-28T13:37:16.805Z,99541.06
2022-09-28T13:42:47.293Z,99544.75
2022-09-28T13:48:15.476Z,99544.03
2022-09-28T13:53:41.540Z,99552.28
2022-09-28T13:59:19.263Z,99546.00
2022-09-28T14:05:06.765Z,99557.66
2022-09-28T14:10:51.831Z,99556.47
2022-09-28T14:16:18.321Z,99563.13
2022-09-28T14:21:54.925Z,99561.19
2022-09-28T14:27:37.408Z,99557.28
2022-09-28T14:32:59.824Z,99562.56
2022-09-28T14:38:47.668Z,99570.78
2022-09-28T14:44:12.957Z,99568.47
2022-09-28T14:49:43.757Z,99580.91
2022-09-28T14:55:12.619Z,99575.63
2022-09-28T15:00:34.321Z,99574.47
2022-09-28T15:05:55.312Z,99576.69
2022-09-28T15:11:19.921Z,99576.78
2022-09-28T15:16:40.222Z,99573.69
2022-09-28T15:22:00.977Z,99586.25
2022-09-28T15:27:23.169Z,99594.19
2022-09-28T15:32:43.916Z,99600.94
2022-09-28T15:38:04.695Z,99604.88
2022-09-28T15:43:29.046Z,99594.72
2022-09-28T15:48:59.625Z,99593.34
2022-09-28T15:54:25.315Z,99594.44
2022-09-28T15:59:56.822Z,99597.13
2022-09-28T16:05:35.702Z,99604.41
2022-09-28T16:11:17.584Z,99602.13
2022-09-28T16:16:46.976Z,99612.53
2022-09-28T16:22:17.011Z,99610.81
2022-09-28T16:27:42.693Z,99611.88
2022-09-28T16:33:25.634Z,99616.53
2022-09-28T16:38:47.539Z,99609.09
2022-09-28T16:44:18.100Z,99608.19
2022-09-28T16:49:39.953Z,99615.16
2022-09-28T16:55:38.902Z,99625.88
2022-09-28T17:00:56.312Z,99633.75
2022-09-28T17:06:19.116Z,99624.50
2022-09-28T17:11:39.811Z,99635.19
2022-09-28T17:17:09.092Z,99636.84
2022-09-28T17:22:31.675Z,99645.47
2022-09-28T17:27:57.385Z,99642.47
2022-09-28T17:33:18.207Z,99658.16
2022-09-28T17:38:38.673Z,99652.41
2022-09-28T17:44:00.675Z,99657.34
2022-09-28T17:49:21.486Z,99662.06
2022-09-28T17:54:42.202Z,99663.81
2022-09-28T18:00:04.067Z,99660.78
2022-09-28T18:05:27.691Z,99667.91
2022-09-28T18:10:50.081Z,99663.81
2022-09-28T18:16:11.809Z,99678.50
2022-09-28T18:21:32.870Z,99675.56
2022-09-28T18:26:53.587Z,99671.72
2022-09-28T18:32:14.375Z,99673.81
2022-09-28T18:37:36.894Z,99682.47
2022-09-28T18:42:57.566Z,99690.28
2022-09-28T18:48:18.369Z,99693.66
2022-09-28T18:53:40.103Z,99695.44
2022-09-28T18:59:01.643Z,99688.47
2022-09-28T19:04:22.215Z,99691.94
2022-09-28T19:09:44.100Z,99698.13
2022-09-28T19:15:05.279Z,99695.69
2022-09-28T19:20:25.848Z,99706.84
2022-09-28T19:25:46.594Z,99708.50
2022-09-28T19:31:10.970Z,99701.47
2022-09-28T19:36:32.060Z,99706.50
2022-09-28T19:41:52.969Z,99714.44
2022-09-28T19:47:13.472Z,99714.69
2022-09-28T19:52:34.389Z,99722.09
2022-09-28T19:57:56.289Z,99725.44
2022-09-28T20:03:18.509Z,99718.06
2022-09-28T20:08:41.383Z,99723.66
2022-09-28T20:14:09.727Z,99727.72
2022-09-28T20:19:30.262Z,99737.47
2022-09-28T20:24:51.004Z,99733.94
2022-09-28T20:30:12.847Z,99732.63
2022-09-28T20:35:34.242Z,99735.50
2022-09-28T20:40:59.612Z,99737.69
2022-09-28T20:46:22.060Z,99743.75
2022-09-28T20:51:42.866Z,99749.97
2022-09-28T20:57:17.202Z,99754.78
2022-09-28T21:02:38.051Z,99744.09
2022-09-28T21:07:58.575Z,99752.19
2022-09-28T21:13:23.297Z,99751.00
2022-09-28T21:18:44.526Z,99753.81
2022-09-28T21:24:05.096Z,99762.59
2022-09-28T21:29:26.248Z,99760.25
2022-09-28T21:34:46.501Z,99774.38
2022-09-28T21:40:09.749Z,99768.81
2022-09-28T21:45:32.168Z,99769.88
2022-09-28T21:50:56.515Z,99770.00
2022-09-28T21:56:17.546Z,99780.81
2022-09-28T22:01:38.295Z,99782.31
2022-09-28T22:06:58.959Z,99785.84
2022-09-28T22:12:19.764Z,99784.53
2022-09-28T22:17:40.141Z,99784.75
2022-09-28T22:23:00.473Z,99794.22
2022-09-28T22:28:22.292Z,99784.06
2022-09-28T22:33:43.727Z,99789.19
2022-09-28T22:39:04.508Z,99784.41
2022-09-28T22:44:25.653Z,99782.06
2022-09-28T22:49:46.240Z,99794.13
2022-09-28T22:55:07.373Z,99793.53
2022-09-28T23:00:28.142Z,99792.63
2022-09-28T23:05:56.409Z,99790.97
2022-09-28T23:11:17.631Z,99796.00
2022-09-28T23:16:38.207Z,99802.94
2022-09-28T23:21:59.258Z,99797.09
2022-09-28T23:27:20.194Z,99799.59
2022-09-28T23:32:40.724Z,99795.41
2022-09-28T23:38:01.159Z,99795.97
2022-09-28T23:43:21.483Z,99790.50
2022-09-28T23:48:42.231Z,99810.09
2022-09-28T23:54:05.295Z,99806.44
2022-09-28T23:59:26.103Z,99808.78
